sensor_id;sensor_type;location;lat;lon;timestamp;pressure;altitude;pressure_sealevel;temperature;humidity
41467;BME280;27205;53.690;19.948;2023-01-26T00:03:33;100765.45;;;0.15;95.31
41467;BME280;27205;53.690;19.948;2023-01-26T00:08:40;100759.33;;;0.14;95.32
41467;BME280;27205;53.690;19.948;2023-01-26T00:13:44;100753.50;;;0.09;95.47
41467;BME280;27205;53.690;19.948;2023-01-26T00:18:48;100746.52;;;0.08;95.97
41467;BME280;27205;53.690;19.948;2023-01-26T00:23:52;100738.80;;;0.10;95.90
41467;BME280;27205;53.690;19.948;2023-01-26T00:28:55;100734.27;;;0.14;95.87
41467;BME280;27205;53.690;19.948;2023-01-26T00:33:59;100722.20;;;0.18;95.91
41467;BME280;27205;53.690;19.948;2023-01-26T00:39:03;100725.68;;;0.19;96.10
41467;BME280;27205;53.690;19.948;2023-01-26T00:44:06;100711.46;;;0.21;96.03
41467;BME280;27205;53.690;19.948;2023-01-26T00:49:10;100710.45;;;0.24;96.21
41467;BME280;27205;53.690;19.948;2023-01-26T00:54:14;100703.56;;;0.22;96.05
41467;BME280;27205;53.690;19.948;2023-01-26T00:59:17;100702.94;;;0.21;95.97
41467;BME280;27205;53.690;19.948;2023-01-26T01:04:21;100703.34;;;0.22;96.15
41467;BME280;27205;53.690;19.948;2023-01-26T01:09:24;100697.08;;;0.22;96.22
41467;BME280;27205;53.690;19.948;2023-01-26T01:14:28;100697.38;;;0.20;96.17
41467;BME280;27205;53.690;19.948;2023-01-26T01:19:32;100703.80;;;0.26;96.32
41467;BME280;27205;53.690;19.948;2023-01-26T01:24:35;100709.61;;;0.28;96.46
41467;BME280;27205;53.690;19.948;2023-01-26T01:29:39;100705.98;;;0.29;96.24
41467;BME280;27205;53.690;19.948;2023-01-26T01:34:45;100708.67;;;0.24;96.06
41467;BME280;27205;53.690;19.948;2023-01-26T01:39:49;100710.52;;;0.23;96.45
41467;BME280;27205;53.690;19.948;2023-01-26T01:50:36;100683.07;;;0.28;96.54
41467;BME280;27205;53.690;19.948;2023-01-26T01:55:41;100678.27;;;0.25;96.48
41467;BME280;27205;53.690;19.948;2023-01-26T02:00:45;100675.40;;;0.24;96.14
41467;BME280;27205;53.690;19.948;2023-01-26T02:06:19;100664.55;;;0.20;96.22
41467;BME280;27205;53.690;19.948;2023-01-26T02:11:40;100664.71;;;0.22;96.32
41467;BME280;27205;53.690;19.948;2023-01-26T02:16:47;100657.90;;;0.20;96.71
41467;BME280;27205;53.690;19.948;2023-01-26T02:21:51;100644.36;;;0.19;96.81
41467;BME280;27205;53.690;19.948;2023-01-26T02:26:55;100639.41;;;0.22;96.84
41467;BME280;27205;53.690;19.948;2023-01-26T02:31:59;100643.12;;;0.24;96.94
41467;BME280;27205;53.690;19.948;2023-01-26T02:37:02;100641.27;;;0.29;96.80
41467;BME280;27205;53.690;19.948;2023-01-26T02:42:06;100639.89;;;0.35;96.86
41467;BME280;27205;53.690;19.948;2023-01-26T02:47:28;100642.07;;;0.39;97.02
41467;BME280;27205;53.690;19.948;2023-01-26T02:52:32;100644.48;;;0.44;96.77
41467;BME280;27205;53.690;19.948;2023-01-26T02:57:36;100633.95;;;0.54;97.14
41467;BME280;27205;53.690;19.948;2023-01-26T03:02:40;100625.83;;;0.55;96.99
41467;BME280;27205;53.690;19.948;2023-01-26T03:07:44;100619.10;;;0.57;97.05
41467;BME280;27205;53.690;19.948;2023-01-26T03:12:48;100606.63;;;0.58;97.06
41467;BME280;27205;53.690;19.948;2023-01-26T03:17:51;100599.97;;;0.49;97.11
41467;BME280;27205;53.690;19.948;2023-01-26T03:23:15;100598.80;;;0.46;97.00
41467;BME280;27205;53.690;19.948;2023-01-26T03:28:37;100595.23;;;0.43;97.50
41467;BME280;27205;53.690;19.948;2023-01-26T03:33:40;100585.33;;;0.43;97.51
41467;BME280;27205;53.690;19.948;2023-01-26T03:38:44;100577.51;;;0.39;97.47
41467;BME280;27205;53.690;19.948;2023-01-26T03:43:47;100566.13;;;0.34;97.76
41467;BME280;27205;53.690;19.948;2023-01-26T03:49:09;100562.50;;;0.36;97.74
41467;BME280;27205;53.690;19.948;2023-01-26T03:54:31;100570.38;;;0.44;97.77
41467;BME280;27205;53.690;19.948;2023-01-26T03:59:54;100559.95;;;0.47;97.74
41467;BME280;27205;53.690;19.948;2023-01-26T04:04:58;100559.23;;;0.52;97.57
41467;BME280;27205;53.690;19.948;2023-01-26T04:10:21;100553.83;;;0.53;97.79
41467;BME280;27205;53.690;19.948;2023-01-26T04:15:24;100552.20;;;0.53;97.64
41467;BME280;27205;53.690;19.948;2023-01-26T04:20:46;100551.95;;;0.55;97.54
41467;BME280;27205;53.690;19.948;2023-01-26T04:26:09;100545.52;;;0.55;97.93
41467;BME280;27205;53.690;19.948;2023-01-26T04:31:12;100541.44;;;0.53;98.03
41467;BME280;27205;53.690;19.948;2023-01-26T04:36:18;100536.95;;;0.54;97.88
41467;BME280;27205;53.690;19.948;2023-01-26T04:41:22;100533.29;;;0.55;97.90
41467;BME280;27205;53.690;19.948;2023-01-26T04:46:26;100530.98;;;0.58;98.03
41467;BME280;27205;53.690;19.948;2023-01-26T04:51:29;100532.05;;;0.61;98.09
41467;BME280;27205;53.690;19.948;2023-01-26T04:56:34;100530.89;;;0.64;98.22
41467;BME280;27205;53.690;19.948;2023-01-26T05:01:39;100518.42;;;0.67;98.45
41467;BME280;27205;53.690;19.948;2023-01-26T05:06:42;100520.04;;;0.71;98.46
41467;BME280;27205;53.690;19.948;2023-01-26T05:11:46;100523.91;;;0.76;98.50
41467;BME280;27205;53.690;19.948;2023-01-26T05:16:50;100526.45;;;0.79;98.41
41467;BME280;27205;53.690;19.948;2023-01-26T05:21:53;100526.14;;;0.81;98.33
41467;BME280;27205;53.690;19.948;2023-01-26T05:26:57;100529.63;;;0.82;98.29
41467;BME280;27205;53.690;19.948;2023-01-26T05:32:20;100530.71;;;0.77;98.24
41467;BME280;27205;53.690;19.948;2023-01-26T05:37:25;100531.12;;;0.73;98.39
41467;BME280;27205;53.690;19.948;2023-01-26T05:42:29;100532.52;;;0.74;98.43
41467;BME280;27205;53.690;19.948;2023-01-26T05:47:33;100538.31;;;0.75;98.37
41467;BME280;27205;53.690;19.948;2023-01-26T05:52:36;100538.86;;;0.75;98.19
41467;BME280;27205;53.690;19.948;2023-01-26T05:57:40;100535.75;;;0.74;98.63
41467;BME280;27205;53.690;19.948;2023-01-26T06:02:44;100529.17;;;0.76;98.51
41467;BME280;27205;53.690;19.948;2023-01-26T06:07:50;100530.41;;;0.73;98.12
41467;BME280;27205;53.690;19.948;2023-01-26T06:12:54;100523.30;;;0.68;98.11
41467;BME280;27205;53.690;19.948;2023-01-26T06:17:59;100520.82;;;0.69;98.39
41467;BME280;27205;53.690;19.948;2023-01-26T06:23:03;100518.80;;;0.69;98.24
41467;BME280;27205;53.690;19.948;2023-01-26T06:28:07;100515.95;;;0.66;98.37
41467;BME280;27205;53.690;19.948;2023-01-26T06:33:11;100523.90;;;0.70;98.53
41467;BME280;27205;53.690;19.948;2023-01-26T06:38:15;100528.24;;;0.75;98.70
41467;BME280;27205;53.690;19.948;2023-01-26T06:43:18;100528.86;;;0.79;98.67
41467;BME280;27205;53.690;19.948;2023-01-26T06:48:24;100524.82;;;0.84;98.82
41467;BME280;27205;53.690;19.948;2023-01-26T06:53:37;100519.23;;;0.86;98.72
41467;BME280;27205;53.690;19.948;2023-01-26T06:58:43;100520.25;;;0.84;98.72
41467;BME280;27205;53.690;19.948;2023-01-26T07:03:48;100516.30;;;0.86;98.74
41467;BME280;27205;53.690;19.948;2023-01-26T07:08:51;100511.63;;;0.94;99.11
41467;BME280;27205;53.690;19.948;2023-01-26T07:13:55;100510.84;;;1.02;98.82
41467;BME280;27205;53.690;19.948;2023-01-26T07:18:59;100519.64;;;1.10;98.92
41467;BME280;27205;53.690;19.948;2023-01-26T07:24:03;100514.58;;;1.17;99.18
41467;BME280;27205;53.690;19.948;2023-01-26T07:29:07;100515.33;;;1.24;99.19
41467;BME280;27205;53.690;19.948;2023-01-26T07:34:11;100507.60;;;1.34;98.92
41467;BME280;27205;53.690;19.948;2023-01-26T07:39:14;100506.55;;;1.47;98.89
41467;BME280;27205;53.690;19.948;2023-01-26T07:44:18;100506.36;;;1.52;98.94
41467;BME280;27205;53.690;19.948;2023-01-26T07:49:22;100513.94;;;1.57;99.12
41467;BME280;27205;53.690;19.948;2023-01-26T07:54:25;100518.63;;;1.65;99.40
41467;BME280;27205;53.690;19.948;2023-01-26T07:59:29;100507.50;;;1.70;99.12
41467;BME280;27205;53.690;19.948;2023-01-26T08:04:32;100508.55;;;1.65;98.85
41467;BME280;27205;53.690;19.948;2023-01-26T08:09:36;100512.16;;;1.56;98.76
41467;BME280;27205;53.690;19.948;2023-01-26T08:14:40;100511.15;;;1.55;98.92
41467;BME280;27205;53.690;19.948;2023-01-26T08:19:49;100505.26;;;1.56;98.94
41467;BME280;27205;53.690;19.948;2023-01-26T08:24:52;100502.80;;;1.52;98.74
41467;BME280;27205;53.690;19.948;2023-01-26T08:29:56;100498.61;;;1.53;99.13
41467;BME280;27205;53.690;19.948;2023-01-26T08:34:59;100489.28;;;1.58;99.24
41467;BME280;27205;53.690;19.948;2023-01-26T08:40:03;100490.78;;;1.65;99.25
41467;BME280;27205;53.690;19.948;2023-01-26T08:45:07;100498.48;;;1.75;99.25
41467;BME280;27205;53.690;19.948;2023-01-26T08:50:11;100485.76;;;1.86;99.32
41467;BME280;27205;53.690;19.948;2023-01-26T08:55:15;100483.26;;;2.01;99.57
41467;BME280;27205;53.690;19.948;2023-01-26T09:00:20;100484.95;;;2.11;99.42
41467;BME280;27205;53.690;19.948;2023-01-26T09:05:24;100482.96;;;2.19;99.18
41467;BME280;27205;53.690;19.948;2023-01-26T09:10:27;100478.44;;;2.21;99.12
41467;BME280;27205;53.690;19.948;2023-01-26T09:15:31;100482.48;;;2.30;99.29
41467;BME280;27205;53.690;19.948;2023-01-26T09:20:36;100471.52;;;2.40;99.43
41467;BME280;27205;53.690;19.948;2023-01-26T09:25:40;100467.70;;;2.42;99.50
41467;BME280;27205;53.690;19.948;2023-01-26T09:30:44;100469.42;;;2.40;99.33
41467;BME280;27205;53.690;19.948;2023-01-26T09:35:48;100474.34;;;2.37;99.18
41467;BME280;27205;53.690;19.948;2023-01-26T09:57:14;100458.16;;;2.56;99.62
41467;BME280;27205;53.690;19.948;2023-01-26T10:07:36;100458.75;;;2.52;99.36
41467;BME280;27205;53.690;19.948;2023-01-26T10:12:39;100461.80;;;2.49;99.51
41467;BME280;27205;53.690;19.948;2023-01-26T10:17:44;100466.30;;;2.49;99.78
41467;BME280;27205;53.690;19.948;2023-01-26T10:23:00;100460.36;;;2.52;99.94
41467;BME280;27205;53.690;19.948;2023-01-26T10:28:17;100453.25;;;2.64;99.95
41467;BME280;27205;53.690;19.948;2023-01-26T10:33:29;100454.08;;;2.68;99.87
41467;BME280;27205;53.690;19.948;2023-01-26T10:43:57;100450.69;;;2.72;99.40
41467;BME280;27205;53.690;19.948;2023-01-26T10:59:31;100447.25;;;2.60;99.15
41467;BME280;27205;53.690;19.948;2023-01-26T11:04:36;100449.07;;;2.56;99.33
41467;BME280;27205;53.690;19.948;2023-01-26T11:09:39;100438.42;;;2.48;99.35
41467;BME280;27205;53.690;19.948;2023-01-26T11:15:02;100435.65;;;2.47;99.71
41467;BME280;27205;53.690;19.948;2023-01-26T11:20:41;100425.18;;;2.45;99.59
41467;BME280;27205;53.690;19.948;2023-01-26T11:26:06;100410.81;;;2.45;99.60
41467;BME280;27205;53.690;19.948;2023-01-26T11:58:03;100388.23;;;2.79;99.99
41467;BME280;27205;53.690;19.948;2023-01-26T12:03:46;100385.29;;;2.89;99.90
41467;BME280;27205;53.690;19.948;2023-01-26T12:14:39;100379.11;;;2.86;99.42
41467;BME280;27205;53.690;19.948;2023-01-26T12:19:56;100376.73;;;2.77;99.22
41467;BME280;27205;53.690;19.948;2023-01-26T12:41:27;100354.81;;;2.59;99.77
41467;BME280;27205;53.690;19.948;2023-01-26T12:46:40;100357.66;;;2.61;99.40
41467;BME280;27205;53.690;19.948;2023-01-26T12:57:24;100348.40;;;2.56;99.63
41467;BME280;27205;53.690;19.948;2023-01-26T13:02:32;100353.41;;;2.52;99.49
41467;BME280;27205;53.690;19.948;2023-01-26T13:07:39;100352.96;;;2.36;99.26
41467;BME280;27205;53.690;19.948;2023-01-26T13:23:00;100335.91;;;2.11;99.77
41467;BME280;27205;53.690;19.948;2023-01-26T13:28:11;100336.73;;;2.08;99.69
41467;BME280;27205;53.690;19.948;2023-01-26T13:33:20;100340.44;;;2.09;99.80
41467;BME280;27205;53.690;19.948;2023-01-26T13:38:42;100344.05;;;2.05;99.58
41467;BME280;27205;53.690;19.948;2023-01-26T13:43:54;100337.39;;;2.03;99.80
41467;BME280;27205;53.690;19.948;2023-01-26T13:49:00;100337.02;;;2.02;99.60
41467;BME280;27205;53.690;19.948;2023-01-26T13:54:14;100332.36;;;2.02;99.69
41467;BME280;27205;53.690;19.948;2023-01-26T13:59:19;100334.24;;;2.07;99.59
41467;BME280;27205;53.690;19.948;2023-01-26T14:09:32;100340.95;;;1.97;99.81
41467;BME280;27205;53.690;19.948;2023-01-26T14:14:36;100341.02;;;1.89;99.76
41467;BME280;27205;53.690;19.948;2023-01-26T14:19:40;100339.14;;;1.85;99.94
41467;BME280;27205;53.690;19.948;2023-01-26T14:24:48;100334.99;;;1.87;99.98
41467;BME280;27205;53.690;19.948;2023-01-26T14:29:52;100338.98;;;1.82;99.98
41467;BME280;27205;53.690;19.948;2023-01-26T14:34:58;100345.32;;;1.87;100.00
41467;BME280;27205;53.690;19.948;2023-01-26T14:40:29;100341.29;;;1.94;100.00
41467;BME280;27205;53.690;19.948;2023-01-26T14:45:32;100332.85;;;1.92;99.96
41467;BME280;27205;53.690;19.948;2023-01-26T14:50:37;100327.35;;;1.90;99.94
41467;BME280;27205;53.690;19.948;2023-01-26T14:55:43;100329.48;;;1.96;100.00
41467;BME280;27205;53.690;19.948;2023-01-26T15:00:47;100335.66;;;1.98;100.00
41467;BME280;27205;53.690;19.948;2023-01-26T15:11:32;100332.36;;;2.10;100.00
41467;BME280;27205;53.690;19.948;2023-01-26T15:16:55;100333.23;;;2.16;100.00
41467;BME280;27205;53.690;19.948;2023-01-26T15:21:59;100334.38;;;2.18;100.00
41467;BME280;27205;53.690;19.948;2023-01-26T15:27:06;100335.06;;;2.20;100.00
41467;BME280;27205;53.690;19.948;2023-01-26T15:32:27;100332.95;;;2.12;100.00
41467;BME280;27205;53.690;19.948;2023-01-26T15:37:32;100339.48;;;2.14;100.00
41467;BME280;27205;53.690;19.948;2023-01-26T15:42:37;100345.07;;;2.12;100.00
41467;BME280;27205;53.690;19.948;2023-01-26T15:47:40;100346.66;;;2.16;100.00
41467;BME280;27205;53.690;19.948;2023-01-26T15:52:44;100353.74;;;2.15;100.00
41467;BME280;27205;53.690;19.948;2023-01-26T15:57:47;100354.20;;;2.07;99.91
41467;BME280;27205;53.690;19.948;2023-01-26T16:02:51;100353.29;;;1.89;99.71
41467;BME280;27205;53.690;19.948;2023-01-26T16:07:54;100344.40;;;1.76;99.77
41467;BME280;27205;53.690;19.948;2023-01-26T16:12:58;100333.45;;;1.70;99.93
41467;BME280;27205;53.690;19.948;2023-01-26T16:18:02;100334.92;;;1.67;100.00
41467;BME280;27205;53.690;19.948;2023-01-26T16:23:26;100337.47;;;1.69;100.00
41467;BME280;27205;53.690;19.948;2023-01-26T16:28:33;100337.54;;;1.61;99.99
41467;BME280;27205;53.690;19.948;2023-01-26T16:33:37;100336.84;;;1.52;99.94
41467;BME280;27205;53.690;19.948;2023-01-26T16:38:41;100333.27;;;1.51;100.00
41467;BME280;27205;53.690;19.948;2023-01-26T16:43:44;100331.86;;;1.54;100.00
41467;BME280;27205;53.690;19.948;2023-01-26T16:48:48;100334.38;;;1.59;100.00
41467;BME280;27205;53.690;19.948;2023-01-26T16:53:52;100333.40;;;1.64;100.00
41467;BME280;27205;53.690;19.948;2023-01-26T16:58:59;100336.23;;;1.69;100.00
41467;BME280;27205;53.690;19.948;2023-01-26T17:04:03;100342.52;;;1.77;100.00
41467;BME280;27205;53.690;19.948;2023-01-26T17:09:07;100348.42;;;1.77;100.00
41467;BME280;27205;53.690;19.948;2023-01-26T17:14:12;100353.95;;;1.67;99.86
41467;BME280;27205;53.690;19.948;2023-01-26T17:19:16;100349.27;;;1.58;99.89
41467;BME280;27205;53.690;19.948;2023-01-26T17:24:19;100354.07;;;1.51;99.96
41467;BME280;27205;53.690;19.948;2023-01-26T17:29:23;100361.23;;;1.45;100.00
41467;BME280;27205;53.690;19.948;2023-01-26T17:34:26;100360.98;;;1.47;100.00
41467;BME280;27205;53.690;19.948;2023-01-26T17:39:30;100358.14;;;1.46;100.00
41467;BME280;27205;53.690;19.948;2023-01-26T17:44:34;100363.89;;;1.44;100.00
41467;BME280;27205;53.690;19.948;2023-01-26T17:49:37;100366.67;;;1.32;100.00
41467;BME280;27205;53.690;19.948;2023-01-26T17:54:41;100361.83;;;1.26;100.00
41467;BME280;27205;53.690;19.948;2023-01-26T17:59:44;100363.91;;;1.29;100.00
41467;BME280;27205;53.690;19.948;2023-01-26T18:22:42;100350.31;;;1.73;100.00
41467;BME280;27205;53.690;19.948;2023-01-26T18:27:46;100350.52;;;1.78;100.00
41467;BME280;27205;53.690;19.948;2023-01-26T18:32:49;100359.60;;;1.67;100.00
41467;BME280;27205;53.690;19.948;2023-01-26T18:37:53;100370.20;;;1.60;100.00
41467;BME280;27205;53.690;19.948;2023-01-26T18:42:57;100375.15;;;1.52;100.00
41467;BME280;27205;53.690;19.948;2023-01-26T18:48:00;100375.82;;;1.45;100.00
41467;BME280;27205;53.690;19.948;2023-01-26T18:53:04;100378.58;;;1.37;100.00
41467;BME280;27205;53.690;19.948;2023-01-26T18:58:07;100383.84;;;1.40;100.00
41467;BME280;27205;53.690;19.948;2023-01-26T19:03:11;100380.68;;;1.47;100.00
41467;BME280;27205;53.690;19.948;2023-01-26T19:08:14;100378.36;;;1.47;100.00
41467;BME280;27205;53.690;19.948;2023-01-26T19:13:19;100375.17;;;1.48;100.00
41467;BME280;27205;53.690;19.948;2023-01-26T19:18:22;100373.17;;;1.59;100.00
41467;BME280;27205;53.690;19.948;2023-01-26T19:23:26;100359.67;;;1.78;100.00
41467;BME280;27205;53.690;19.948;2023-01-26T19:28:30;100349.80;;;1.88;100.00
41467;BME280;27205;53.690;19.948;2023-01-26T19:33:33;100349.89;;;1.95;100.00
41467;BME280;27205;53.690;19.948;2023-01-26T19:38:37;100351.30;;;2.02;100.00
41467;BME280;27205;53.690;19.948;2023-01-26T19:43:41;100353.95;;;2.16;100.00
41467;BME280;27205;53.690;19.948;2023-01-26T19:48:47;100353.11;;;2.17;100.00
41467;BME280;27205;53.690;19.948;2023-01-26T19:53:54;100348.11;;;2.04;100.00
41467;BME280;27205;53.690;19.948;2023-01-26T19:59:01;100343.45;;;1.95;100.00
41467;BME280;27205;53.690;19.948;2023-01-26T20:04:07;100340.52;;;1.86;100.00
41467;BME280;27205;53.690;19.948;2023-01-26T20:09:11;100341.95;;;1.80;100.00
41467;BME280;27205;53.690;19.948;2023-01-26T20:14:14;100342.02;;;1.74;100.00
41467;BME280;27205;53.690;19.948;2023-01-26T20:19:18;100346.09;;;1.68;100.00
41467;BME280;27205;53.690;19.948;2023-01-26T20:24:21;100342.90;;;1.61;100.00
41467;BME280;27205;53.690;19.948;2023-01-26T20:29:25;100343.02;;;1.56;100.00
41467;BME280;27205;53.690;19.948;2023-01-26T20:34:28;100334.91;;;1.51;100.00
41467;BME280;27205;53.690;19.948;2023-01-26T20:39:32;100335.10;;;1.46;100.00
41467;BME280;27205;53.690;19.948;2023-01-26T20:44:36;100335.10;;;1.46;100.00
41467;BME280;27205;53.690;19.948;2023-01-26T20:49:40;100346.05;;;1.33;100.00
41467;BME280;27205;53.690;19.948;2023-01-26T20:54:46;100351.45;;;1.24;100.00
41467;BME280;27205;53.690;19.948;2023-01-26T20:59:50;100354.27;;;1.21;100.00
41467;BME280;27205;53.690;19.948;2023-01-26T21:04:54;100351.58;;;1.18;100.00
41467;BME280;27205;53.690;19.948;2023-01-26T21:09:58;100349.48;;;1.19;100.00
41467;BME280;27205;53.690;19.948;2023-01-26T21:15:03;100349.70;;;1.19;100.00
41467;BME280;27205;53.690;19.948;2023-01-26T21:20:07;100351.11;;;1.17;100.00
41467;BME280;27205;53.690;19.948;2023-01-26T21:25:12;100344.60;;;1.16;100.00
41467;BME280;27205;53.690;19.948;2023-01-26T21:30:16;100344.45;;;1.19;100.00
41467;BME280;27205;53.690;19.948;2023-01-26T21:35:20;100347.62;;;1.17;100.00
41467;BME280;27205;53.690;19.948;2023-01-26T21:40:24;100351.77;;;1.11;100.00
41467;BME280;27205;53.690;19.948;2023-01-26T21:45:27;100357.67;;;1.08;100.00
41467;BME280;27205;53.690;19.948;2023-01-26T21:50:53;100367.27;;;1.09;100.00
41467;BME280;27205;53.690;19.948;2023-01-26T21:56:16;100368.85;;;1.06;100.00
41467;BME280;27205;53.690;19.948;2023-01-26T22:01:20;100372.55;;;1.09;100.00
41467;BME280;27205;53.690;19.948;2023-01-26T22:06:25;100377.46;;;1.05;100.00
41467;BME280;27205;53.690;19.948;2023-01-26T22:11:28;100375.59;;;1.05;100.00
41467;BME280;27205;53.690;19.948;2023-01-26T22:16:32;100370.65;;;1.01;100.00
41467;BME280;27205;53.690;19.948;2023-01-26T22:21:36;100367.89;;;0.96;100.00
41467;BME280;27205;53.690;19.948;2023-01-26T22:26:40;100364.64;;;0.94;100.00
41467;BME280;27205;53.690;19.948;2023-01-26T22:31:44;100364.86;;;0.96;100.00
41467;BME280;27205;53.690;19.948;2023-01-26T22:36:48;100364.96;;;0.93;100.00
41467;BME280;27205;53.690;19.948;2023-01-26T22:41:51;100361.37;;;1.00;100.00
41467;BME280;27205;53.690;19.948;2023-01-26T22:46:55;100354.21;;;1.04;100.00
41467;BME280;27205;53.690;19.948;2023-01-26T22:51:58;100348.33;;;1.01;100.00
41467;BME280;27205;53.690;19.948;2023-01-26T22:57:02;100347.30;;;1.05;100.00
41467;BME280;27205;53.690;19.948;2023-01-26T23:02:06;100348.78;;;1.06;100.00
41467;BME280;27205;53.690;19.948;2023-01-26T23:07:10;100343.48;;;1.09;100.00
41467;BME280;27205;53.690;19.948;2023-01-26T23:12:13;100342.96;;;1.19;100.00
41467;BME280;27205;53.690;19.948;2023-01-26T23:17:17;100343.30;;;1.26;100.00
41467;BME280;27205;53.690;19.948;2023-01-26T23:22:20;100340.52;;;1.25;100.00
41467;BME280;27205;53.690;19.948;2023-01-26T23:27:24;100342.54;;;1.24;100.00
41467;BME280;27205;53.690;19.948;2023-01-26T23:32:28;100342.83;;;1.30;100.00
41467;BME280;27205;53.690;19.948;2023-01-26T23:37:31;100341.95;;;1.21;100.00
41467;BME280;27205;53.690;19.948;2023-01-26T23:42:35;100339.67;;;1.14;100.00
41467;BME280;27205;53.690;19.948;2023-01-26T23:47:59;100341.16;;;1.11;100.00
41467;BME280;27205;53.690;19.948;2023-01-26T23:53:02;100335.15;;;1.18;100.00
41467;BME280;27205;53.690;19.948;2023-01-26T23:58:07;100334.98;;;1.31;100.00
